createdAt,value
2018-04-20T00:00:11.442Z,92.60
2018-04-20T00:02:39.048Z,92.90
2018-04-20T00:05:07.450Z,93.10
2018-04-20T00:07:35.081Z,93.20
2018-04-20T00:10:02.766Z,93.30
2018-04-20T00:12:30.405Z,93.40
2018-04-20T00:14:58.045Z,93.30
2018-04-20T00:17:26.488Z,93.90
2018-04-20T00:19:54.400Z,93.90
2018-04-20T00:22:22.834Z,94.50
2018-04-20T00:24:50.478Z,94.50
2018-04-20T00:27:18.100Z,94.80
2018-04-20T00:29:46.581Z,95.00
2018-04-20T00:32:14.988Z,95.10
2018-04-20T00:34:43.678Z,95.10
2018-04-20T00:37:12.785Z,95.30
2018-04-20T00:39:40.469Z,95.30
2018-04-20T00:42:08.103Z,95.20
2018-04-20T00:44:35.744Z,95.50
2018-04-20T00:47:04.137Z,96.40
2018-04-20T00:49:31.772Z,96.40
2018-04-20T00:52:00.790Z,96.60
2018-04-20T00:54:28.759Z,96.60
2018-04-20T00:56:56.417Z,96.70
2018-04-20T00:59:24.037Z,96.80
2018-04-20T01:01:51.690Z,97.20
2018-04-20T01:04:19.286Z,97.60
2018-04-20T01:06:47.724Z,97.80
2018-04-20T01:09:15.375Z,98.10
2018-04-20T01:11:42.980Z,98.40
2018-04-20T01:14:11.353Z,98.60
2018-04-20T01:16:38.993Z,98.60
2018-04-20T01:19:06.597Z,99.20
2018-04-20T01:21:34.991Z,99.90
2018-04-20T01:24:02.646Z,99.90
2018-04-20T01:26:30.307Z,99.90
2018-04-20T01:28:57.873Z,99.90
2018-04-20T01:31:25.475Z,99.90
2018-04-20T01:33:53.402Z,99.90
2018-04-20T01:36:21.023Z,99.90
2018-04-20T01:38:48.624Z,99.90
2018-04-20T01:41:16.288Z,99.90
2018-04-20T01:43:43.947Z,99.90
2018-04-20T01:46:11.592Z,99.90
2018-04-20T01:48:39.283Z,99.90
2018-04-20T01:51:06.985Z,99.90
2018-04-20T01:53:34.691Z,99.90
2018-04-20T01:56:03.363Z,99.90
2018-04-20T01:58:31.050Z,99.90
2018-04-20T02:00:58.684Z,99.90
2018-04-20T02:03:27.121Z,99.90
2018-04-20T02:05:54.720Z,99.90
2018-04-20T02:08:23.095Z,99.90
2018-04-20T02:10:51.507Z,99.90
2018-04-20T02:13:19.189Z,99.90
2018-04-20T02:15:46.863Z,99.90
2018-04-20T02:18:14.565Z,99.90
2018-04-20T02:20:42.183Z,99.90
2018-04-20T02:23:09.817Z,99.90
2018-04-20T02:25:37.536Z,99.90
2018-04-20T02:28:05.116Z,99.90
2018-04-20T02:30:33.493Z,99.90
2018-04-20T02:33:01.870Z,99.90
2018-04-20T02:35:30.232Z,99.90
2018-04-20T02:37:57.867Z,99.90
2018-04-20T02:40:25.474Z,99.90
2018-04-20T02:42:53.864Z,99.90
2018-04-20T02:45:21.512Z,99.90
2018-04-20T02:47:49.960Z,99.90
2018-04-20T02:50:17.590Z,99.90
2018-04-20T02:52:45.248Z,99.90
2018-04-20T02:55:12.894Z,99.90
2018-04-20T02:57:41.481Z,99.90
2018-04-20T03:00:10.420Z,99.90
2018-04-20T03:02:38.097Z,99.90
2018-04-20T03:05:06.510Z,99.90
2018-04-20T03:07:34.138Z,99.90
2018-04-20T03:10:01.828Z,99.90
2018-04-20T03:12:29.480Z,99.90
2018-04-20T03:14:57.118Z,99.90
2018-04-20T03:17:24.729Z,99.90
2018-04-20T03:19:53.183Z,99.90
2018-04-20T03:22:21.599Z,99.90
2018-04-20T03:24:49.215Z,99.90
2018-04-20T03:27:16.819Z,99.90
2018-04-20T03:29:45.358Z,99.90
2018-04-20T03:32:12.932Z,99.90
2018-04-20T03:34:42.050Z,99.90
2018-04-20T03:37:09.651Z,99.90
2018-04-20T03:39:37.279Z,99.90
2018-04-20T03:42:04.902Z,99.90
2018-04-20T03:44:32.526Z,99.90
2018-04-20T03:47:00.149Z,99.90
2018-04-20T03:49:28.517Z,99.90
2018-04-20T03:51:56.923Z,99.90
2018-04-20T03:54:24.513Z,99.90
2018-04-20T03:56:52.465Z,99.90
2018-04-20T03:59:20.049Z,99.90
2018-04-20T04:01:48.362Z,99.90
2018-04-20T04:04:16.834Z,99.90
2018-04-20T04:06:44.453Z,99.90
2018-04-20T04:09:12.046Z,99.90
2018-04-20T04:11:39.709Z,99.90
2018-04-20T04:14:07.333Z,99.90
2018-04-20T04:16:47.788Z,99.90
2018-04-20T04:19:27.248Z,99.90
2018-04-20T04:22:06.916Z,99.90
2018-04-20T04:24:46.292Z,99.90
2018-04-20T04:27:23.871Z,99.90
2018-04-20T04:29:51.577Z,99.90
2018-04-20T04:32:19.270Z,99.90
2018-04-20T04:34:46.933Z,99.90
2018-04-20T04:37:14.570Z,99.90
2018-04-20T04:39:42.221Z,99.90
2018-04-20T04:42:09.860Z,99.90
2018-04-20T04:44:37.497Z,99.90
2018-04-20T04:47:05.098Z,99.90
2018-04-20T04:49:32.775Z,99.90
2018-04-20T04:52:00.422Z,99.90
2018-04-20T04:54:28.054Z,99.90
2018-04-20T04:56:56.556Z,99.90
2018-04-20T04:59:25.084Z,99.90
2018-04-20T05:01:52.840Z,99.90
2018-04-20T05:04:20.572Z,99.90
2018-04-20T05:06:48.201Z,99.90
2018-04-20T05:09:16.643Z,99.90
2018-04-20T05:11:44.473Z,99.90
2018-04-20T05:14:12.132Z,99.90
2018-04-20T05:16:39.832Z,99.90
2018-04-20T05:19:07.456Z,99.90
2018-04-20T05:21:35.233Z,99.90
2018-04-20T05:24:02.936Z,99.90
2018-04-20T05:26:30.577Z,99.90
2018-04-20T05:28:58.339Z,99.90
2018-04-20T05:31:25.974Z,99.90
2018-04-20T05:33:53.752Z,99.90
2018-04-20T05:36:21.388Z,99.90
2018-04-20T05:38:49.257Z,99.90
2018-04-20T05:41:18.639Z,99.90
2018-04-20T05:43:47.140Z,99.90
2018-04-20T05:46:14.857Z,99.90
2018-04-20T05:48:42.681Z,99.90
2018-04-20T05:51:11.231Z,99.90
2018-04-20T05:53:38.984Z,99.90
2018-04-20T05:56:06.723Z,99.90
2018-04-20T05:58:34.384Z,99.90
2018-04-20T06:01:03.276Z,99.90
2018-04-20T06:03:30.913Z,99.90
2018-04-20T06:05:59.167Z,99.90
2018-04-20T06:08:26.782Z,99.90
2018-04-20T06:10:54.458Z,99.90
2018-04-20T06:13:22.119Z,99.90
2018-04-20T06:15:49.791Z,99.90
2018-04-20T06:18:17.443Z,99.90
2018-04-20T06:20:45.091Z,99.90
2018-04-20T06:23:12.754Z,99.90
2018-04-20T06:25:40.348Z,99.90
2018-04-20T06:28:08.827Z,99.90
2018-04-20T06:30:37.249Z,99.90
2018-04-20T06:33:04.871Z,99.90
2018-04-20T06:35:33.251Z,99.90
2018-04-20T06:38:01.645Z,99.90
2018-04-20T06:40:29.284Z,99.90
2018-04-20T06:42:56.864Z,99.90
2018-04-20T06:45:25.273Z,99.90
2018-04-20T06:47:52.936Z,99.90
2018-04-20T06:50:20.954Z,99.90
2018-04-20T06:52:48.700Z,99.90
2018-04-20T06:55:18.968Z,99.90
2018-04-20T06:57:46.586Z,99.90
2018-04-20T07:00:14.205Z,99.90
2018-04-20T07:02:41.929Z,99.90
2018-04-20T07:05:09.545Z,99.90
2018-04-20T07:07:37.915Z,99.90
2018-04-20T07:10:05.824Z,99.90
2018-04-20T07:12:33.436Z,99.90
2018-04-20T07:15:01.083Z,99.90
2018-04-20T07:17:29.514Z,98.70
2018-04-20T07:19:57.165Z,98.70
2018-04-20T07:22:24.826Z,98.00
2018-04-20T07:24:52.490Z,96.90
2018-04-20T07:27:20.850Z,96.60
2018-04-20T07:32:22.491Z,95.40
2018-04-20T07:34:50.087Z,94.80
2018-04-20T07:37:17.697Z,94.40
2018-04-20T07:39:46.124Z,93.80
2018-04-20T07:42:13.752Z,93.80
2018-04-20T07:44:42.178Z,93.10
2018-04-20T07:47:10.336Z,93.10
2018-04-20T07:49:38.822Z,92.90
2018-04-20T07:52:07.626Z,92.60
2018-04-20T07:54:35.273Z,92.60
2018-04-20T07:57:02.936Z,92.60
2018-04-20T07:59:30.576Z,92.80
2018-04-20T08:01:58.237Z,92.80
2018-04-20T08:04:25.844Z,92.60
2018-04-20T08:06:53.436Z,92.70
2018-04-20T08:09:22.021Z,93.00
2018-04-20T08:11:50.507Z,93.00
2018-04-20T08:14:18.126Z,92.80
2018-04-20T08:16:45.767Z,92.90
2018-04-20T08:19:13.487Z,92.90
2018-04-20T08:21:41.238Z,92.80
2018-04-20T08:24:09.709Z,92.90
2018-04-20T08:26:37.369Z,92.90
2018-04-20T08:29:05.048Z,93.00
2018-04-20T08:31:32.735Z,93.10
2018-04-20T08:34:01.122Z,92.80
2018-04-20T08:36:29.553Z,92.60
2018-04-20T08:38:57.192Z,92.60
2018-04-20T08:41:24.918Z,92.60
2018-04-20T08:43:53.354Z,92.60
2018-04-20T08:46:21.933Z,92.50
2018-04-20T08:48:49.535Z,92.50
2018-04-20T08:51:17.186Z,92.40
2018-04-20T08:53:44.769Z,92.50
2018-04-20T08:56:12.984Z,92.30
2018-04-20T08:58:40.695Z,92.20
2018-04-20T09:01:08.323Z,92.30
2018-04-20T09:03:36.017Z,92.10
2018-04-20T09:06:04.454Z,91.90
2018-04-20T09:08:32.332Z,91.90
2018-04-20T09:10:59.962Z,91.90
2018-04-20T09:13:27.588Z,92.00
2018-04-20T09:15:55.201Z,92.00
2018-04-20T09:18:22.788Z,91.90
2018-04-20T09:20:50.448Z,91.40
2018-04-20T09:23:19.623Z,91.70
2018-04-20T09:25:47.277Z,91.70
2018-04-20T09:28:15.194Z,91.60
2018-04-20T09:30:42.819Z,91.40
2018-04-20T09:33:11.330Z,91.60
2018-04-20T09:35:39.765Z,91.20
2018-04-20T09:38:07.385Z,91.20
2018-04-20T09:40:34.995Z,91.10
2018-04-20T09:43:02.580Z,90.90
2018-04-20T09:45:31.455Z,91.00
2018-04-20T09:47:59.362Z,91.20
2018-04-20T09:50:28.198Z,90.60
2018-04-20T09:52:55.861Z,91.00
2018-04-20T09:55:23.427Z,90.80
2018-04-20T09:57:51.111Z,90.80
2018-04-20T10:00:20.342Z,90.90
2018-04-20T10:02:56.890Z,91.00
2018-04-20T10:05:24.601Z,90.90
2018-04-20T10:07:52.238Z,90.70
2018-04-20T10:10:20.491Z,90.60
2018-04-20T10:12:48.202Z,90.50
2018-04-20T10:15:15.818Z,90.60
2018-04-20T10:17:43.458Z,90.50
2018-04-20T10:20:11.128Z,90.50
2018-04-20T10:22:38.731Z,90.40
2018-04-20T10:25:07.192Z,90.10
2018-04-20T10:27:35.560Z,90.10
2018-04-20T10:30:03.190Z,90.40
2018-04-20T10:32:31.654Z,90.50
2018-04-20T10:34:59.285Z,90.70
2018-04-20T10:37:27.663Z,90.20
2018-04-20T10:39:55.293Z,89.60
2018-04-20T10:42:23.047Z,90.20
2018-04-20T10:44:50.714Z,89.80
2018-04-20T10:47:18.349Z,89.40
2018-04-20T10:49:45.974Z,89.10
2018-04-20T10:52:13.765Z,88.90
2018-04-20T10:54:41.467Z,89.30
2018-04-20T10:57:09.162Z,88.40
2018-04-20T10:59:36.829Z,88.00
2018-04-20T11:02:05.396Z,88.70
2018-04-20T11:04:32.998Z,88.70
2018-04-20T11:07:00.748Z,88.50
2018-04-20T11:09:28.495Z,87.60
2018-04-20T11:11:56.869Z,87.10
2018-04-20T11:14:26.064Z,86.90
2018-04-20T11:16:53.776Z,87.40
2018-04-20T11:19:21.492Z,86.60
2018-04-20T11:21:49.093Z,86.00
2018-04-20T11:24:17.147Z,85.60
2018-04-20T11:26:45.531Z,83.70
2018-04-20T11:29:13.929Z,84.50
2018-04-20T11:31:41.814Z,84.50
2018-04-20T11:34:09.426Z,84.80
2018-04-20T11:36:37.921Z,84.20
2018-04-20T11:39:06.437Z,84.20
2018-04-20T11:41:34.066Z,84.30
2018-04-20T11:44:02.676Z,83.70
2018-04-20T11:46:30.358Z,83.70
2018-04-20T11:48:58.088Z,84.00
2018-04-20T11:51:25.820Z,83.60
2018-04-20T11:53:53.460Z,83.80
2018-04-20T11:56:21.833Z,81.20
2018-04-20T11:58:49.569Z,81.40
2018-04-20T12:01:17.201Z,80.00
2018-04-20T12:03:45.587Z,80.00
2018-04-20T12:06:13.939Z,80.00
2018-04-20T12:08:41.578Z,79.90
2018-04-20T12:11:09.348Z,80.60
2018-04-20T12:13:37.754Z,80.40
2018-04-20T12:16:06.220Z,81.00
2018-04-20T12:18:33.859Z,80.10
2018-04-20T12:21:02.461Z,80.20
2018-04-20T12:23:30.151Z,79.70
2018-04-20T12:25:58.526Z,79.90
2018-04-20T12:28:26.982Z,79.10
2018-04-20T12:30:54.650Z,79.00
2018-04-20T12:33:22.703Z,79.40
2018-04-20T12:35:50.372Z,80.50
2018-04-20T12:38:17.976Z,79.60
2018-04-20T12:40:46.351Z,77.50
2018-04-20T12:43:14.732Z,76.80
2018-04-20T12:45:43.382Z,76.90
2018-04-20T12:48:10.998Z,76.90
2018-04-20T12:50:38.657Z,76.40
2018-04-20T12:53:06.391Z,77.90
2018-04-20T12:55:34.749Z,78.40
2018-04-20T12:58:02.393Z,77.00
2018-04-20T13:00:30.016Z,77.30
2018-04-20T13:02:57.624Z,77.10
2018-04-20T13:05:25.267Z,77.10
2018-04-20T13:07:52.858Z,74.90
2018-04-20T13:10:20.472Z,75.20
2018-04-20T13:12:48.055Z,75.20
2018-04-20T13:15:15.741Z,73.90
2018-04-20T13:17:43.419Z,73.00
2018-04-20T13:20:11.065Z,69.30
2018-04-20T13:22:38.752Z,67.90
2018-04-20T13:25:07.377Z,68.50
2018-04-20T13:27:34.976Z,68.50
2018-04-20T13:30:03.383Z,69.60
2018-04-20T13:32:31.746Z,69.40
2018-04-20T13:34:59.407Z,69.40
2018-04-20T13:37:26.996Z,69.90
2018-04-20T13:39:55.344Z,70.30
2018-04-20T13:42:22.969Z,70.30
2018-04-20T13:44:50.566Z,69.60
2018-04-20T13:47:18.975Z,69.20
2018-04-20T13:49:46.642Z,69.10
2018-04-20T13:52:15.100Z,68.80
2018-04-20T13:54:42.694Z,68.80
2018-04-20T13:57:10.302Z,68.60
2018-04-20T13:59:37.926Z,69.40
2018-04-20T14:02:05.514Z,69.70
2018-04-20T14:04:33.148Z,67.20
2018-04-20T14:07:00.731Z,65.50
2018-04-20T14:09:28.306Z,66.10
2018-04-20T14:11:55.956Z,64.40
2018-04-20T14:14:23.594Z,65.60
2018-04-20T14:16:51.253Z,62.90
2018-04-20T14:19:18.946Z,63.20
2018-04-20T14:21:46.795Z,64.00
2018-04-20T14:24:14.434Z,64.60
2018-04-20T14:26:42.120Z,64.60
2018-04-20T14:29:09.868Z,62.70
2018-04-20T14:31:37.529Z,63.10
2018-04-20T14:34:05.204Z,63.60
2018-04-20T14:36:32.881Z,64.20
2018-04-20T14:39:00.522Z,63.70
2018-04-20T14:41:28.274Z,64.10
2018-04-20T14:43:56.103Z,64.80
2018-04-20T14:46:23.629Z,64.10
2018-04-20T14:48:51.294Z,64.80
2018-04-20T14:51:18.916Z,65.50
2018-04-20T14:53:46.499Z,65.90
2018-04-20T14:56:14.186Z,66.40
2018-04-20T14:58:41.836Z,66.40
2018-04-20T15:01:09.405Z,66.20
2018-04-20T15:03:37.087Z,65.60
2018-04-20T15:06:04.736Z,65.70
2018-04-20T15:08:32.361Z,64.20
2018-04-20T15:11:00.082Z,63.80
2018-04-20T15:13:27.684Z,63.70
2018-04-20T15:15:55.292Z,64.00
2018-04-20T15:18:23.243Z,64.40
2018-04-20T15:20:50.991Z,63.30
2018-04-20T15:23:18.641Z,63.90
2018-04-20T15:25:46.351Z,64.60
2018-04-20T15:28:14.110Z,65.90
2018-04-20T15:30:41.707Z,66.30
2018-04-20T15:33:10.068Z,67.10
2018-04-20T15:35:37.709Z,67.00
2018-04-20T15:38:05.413Z,67.60
2018-04-20T15:40:33.054Z,68.40
2018-04-20T15:43:01.120Z,68.60
2018-04-20T15:45:28.704Z,69.70
2018-04-20T15:47:56.440Z,70.00
2018-04-20T15:50:24.104Z,70.30
2018-04-20T15:52:51.769Z,70.50
2018-04-20T15:55:19.358Z,71.30
2018-04-20T15:57:47.780Z,71.70
2018-04-20T16:00:15.422Z,71.70
2018-04-20T16:02:43.085Z,72.10
2018-04-20T16:05:10.714Z,72.80
2018-04-20T16:07:39.198Z,72.70
2018-04-20T16:10:06.822Z,72.70
2018-04-20T16:12:34.469Z,73.10
2018-04-20T16:15:02.187Z,73.10
2018-04-20T16:17:30.619Z,73.30
2018-04-20T16:19:58.781Z,73.30
2018-04-20T16:22:26.394Z,73.90
2018-04-20T16:24:54.125Z,74.20
2018-04-20T16:27:21.813Z,74.00
2018-04-20T16:29:49.503Z,74.00
2018-04-20T16:32:17.167Z,73.60
2018-04-20T16:34:44.900Z,73.90
2018-04-20T16:37:13.332Z,74.40
2018-04-20T16:39:40.997Z,74.50
2018-04-20T16:42:08.644Z,74.20
2018-04-20T16:44:36.344Z,72.30
2018-04-20T16:47:03.971Z,71.80
2018-04-20T16:49:31.599Z,72.20
2018-04-20T16:51:59.219Z,72.30
2018-04-20T16:54:26.923Z,71.60
2018-04-20T16:56:54.541Z,71.90
2018-04-20T16:59:22.196Z,71.80
2018-04-20T17:01:49.779Z,72.40
2018-04-20T17:04:17.443Z,72.30
2018-04-20T17:06:45.066Z,72.20
2018-04-20T17:09:12.730Z,72.20
2018-04-20T17:11:40.387Z,72.20
2018-04-20T17:14:07.980Z,72.30
2018-04-20T17:16:36.361Z,72.70
2018-04-20T17:19:03.968Z,72.60
2018-04-20T17:21:31.577Z,72.50
2018-04-20T17:23:59.244Z,73.00
2018-04-20T17:26:26.901Z,73.30
2018-04-20T17:28:54.542Z,73.80
2018-04-20T17:31:22.196Z,73.80
2018-04-20T17:33:49.941Z,72.80
2018-04-20T17:36:18.350Z,72.00
2018-04-20T17:38:45.948Z,72.00
2018-04-20T17:41:13.821Z,71.70
2018-04-20T17:43:41.482Z,71.50
2018-04-20T17:46:09.064Z,71.40
2018-04-20T17:48:37.443Z,71.70
2018-04-20T17:51:05.079Z,71.70
2018-04-20T17:53:32.717Z,71.30
2018-04-20T17:56:00.384Z,71.70
2018-04-20T17:58:27.989Z,72.10
2018-04-20T18:00:56.440Z,73.60
2018-04-20T18:03:24.141Z,73.60
2018-04-20T18:05:52.558Z,74.50
2018-04-20T18:08:20.132Z,74.50
2018-04-20T18:10:50.311Z,75.10
2018-04-20T18:13:18.025Z,75.10
2018-04-20T18:15:45.615Z,75.50
2018-04-20T18:18:13.282Z,76.00
2018-04-20T18:20:40.995Z,76.20
2018-04-20T18:23:08.610Z,76.40
2018-04-20T18:25:36.243Z,76.70
2018-04-20T18:28:04.061Z,77.30
2018-04-20T18:30:31.748Z,77.70
2018-04-20T18:32:59.412Z,77.90
2018-04-20T18:35:27.088Z,78.30
2018-04-20T18:37:54.761Z,79.10
2018-04-20T18:40:22.437Z,80.60
2018-04-20T18:42:50.165Z,82.10
2018-04-20T18:45:18.571Z,84.40
2018-04-20T18:47:46.227Z,84.40
2018-04-20T18:50:14.779Z,86.00
2018-04-20T18:52:42.618Z,86.00
2018-04-20T18:55:10.210Z,86.80
2018-04-20T18:57:37.848Z,87.60
2018-04-20T19:00:05.698Z,88.50
2018-04-20T19:02:33.433Z,89.40
2018-04-20T19:05:01.130Z,89.80
2018-04-20T19:07:28.833Z,89.90
2018-04-20T19:09:56.484Z,90.10
2018-04-20T19:12:24.144Z,90.40
2018-04-20T19:14:51.828Z,90.50
2018-04-20T19:17:19.487Z,90.70
2018-04-20T19:19:47.166Z,90.90
2018-04-20T19:22:14.786Z,91.00
2018-04-20T19:24:42.466Z,91.20
2018-04-20T19:27:10.060Z,91.40
2018-04-20T19:29:38.524Z,91.60
2018-04-20T19:32:06.230Z,91.80
2018-04-20T19:34:34.118Z,92.20
2018-04-20T19:37:01.735Z,92.10
2018-04-20T19:39:29.324Z,92.30
2018-04-20T19:41:56.978Z,92.60
2018-04-20T19:44:24.545Z,92.60
2018-04-20T19:46:52.169Z,92.80
2018-04-20T19:49:19.810Z,92.90
2018-04-20T19:51:47.444Z,93.00
2018-04-20T19:54:15.079Z,93.20
2018-04-20T19:56:43.562Z,93.50
2018-04-20T19:59:11.293Z,93.50
2018-04-20T20:01:38.925Z,93.70
2018-04-20T20:04:06.510Z,93.80
2018-04-20T20:06:34.141Z,93.90
2018-04-20T20:09:01.729Z,94.10
2018-04-20T20:11:29.882Z,94.30
2018-04-20T20:13:57.583Z,94.50
2018-04-20T20:16:25.218Z,94.60
2018-04-20T20:18:52.884Z,94.80
2018-04-20T20:21:20.523Z,95.00
2018-04-20T20:23:48.150Z,95.20
2018-04-20T20:26:16.499Z,95.50
2018-04-20T20:28:44.164Z,95.50
2018-04-20T20:31:11.769Z,95.60
2018-04-20T20:33:39.426Z,95.80
2018-04-20T20:36:07.035Z,95.90
2018-04-20T20:38:34.635Z,96.20
2018-04-20T20:41:02.298Z,96.30
2018-04-20T20:43:30.925Z,96.40
2018-04-20T20:45:58.691Z,96.40
2018-04-20T20:48:26.341Z,96.60
2018-04-20T20:50:53.966Z,96.40
2018-04-20T20:53:22.363Z,96.50
2018-04-20T20:55:49.953Z,96.50
2018-04-20T20:58:17.565Z,96.50
2018-04-20T21:00:45.178Z,96.80
2018-04-20T21:03:12.804Z,96.90
2018-04-20T21:05:40.433Z,97.10
2018-04-20T21:08:08.808Z,97.50
2018-04-20T21:10:36.408Z,97.50
2018-04-20T21:13:04.025Z,97.70
2018-04-20T21:15:31.665Z,97.90
2018-04-20T21:17:59.354Z,98.00
2018-04-20T21:20:26.988Z,98.10
2018-04-20T21:22:54.648Z,98.30
2018-04-20T21:25:22.243Z,98.30
2018-04-20T21:27:49.900Z,98.40
2018-04-20T21:30:17.501Z,98.50
2018-04-20T21:32:45.125Z,98.70
2018-04-20T21:35:12.820Z,98.80
2018-04-20T21:37:40.692Z,98.90
2018-04-20T21:40:08.281Z,99.00
2018-04-20T21:42:35.947Z,99.10
2018-04-20T21:45:03.585Z,99.00
2018-04-20T21:47:31.224Z,99.00
2018-04-20T21:49:59.622Z,99.10
2018-04-20T21:52:27.193Z,99.10
2018-04-20T21:54:54.791Z,99.10
2018-04-20T21:57:22.455Z,99.00
2018-04-20T21:59:50.046Z,98.80
2018-04-20T22:02:17.678Z,98.90
2018-04-20T22:04:45.279Z,98.80
2018-04-20T22:07:12.973Z,98.90
2018-04-20T22:09:40.584Z,99.00
2018-04-20T22:12:08.219Z,98.90
2018-04-20T22:14:35.849Z,98.80
2018-04-20T22:17:03.472Z,99.00
2018-04-20T22:19:31.836Z,99.00
2018-04-20T22:21:59.440Z,98.90
2018-04-20T22:24:27.081Z,98.90
2018-04-20T22:26:54.706Z,98.80
2018-04-20T22:29:22.301Z,98.80
2018-04-20T22:31:49.907Z,98.90
2018-04-20T22:34:17.521Z,98.90
2018-04-20T22:36:45.101Z,99.00
2018-04-20T22:39:12.851Z,99.10
2018-04-20T22:41:40.475Z,99.20
2018-04-20T22:44:08.073Z,99.30
2018-04-20T22:46:35.696Z,99.30
2018-04-20T22:49:03.312Z,99.60
2018-04-20T22:51:30.916Z,99.30
2018-04-20T22:53:58.526Z,99.30
2018-04-20T22:56:26.116Z,99.30
2018-04-20T22:58:53.743Z,99.20
2018-04-20T23:01:21.340Z,99.30
2018-04-20T23:03:48.917Z,99.20
2018-04-20T23:06:16.501Z,99.20
2018-04-20T23:08:44.128Z,99.20
2018-04-20T23:11:11.717Z,99.30
2018-04-20T23:13:40.118Z,99.50
2018-04-20T23:16:07.721Z,99.40
2018-04-20T23:18:35.317Z,99.50
2018-04-20T23:21:02.944Z,99.50
2018-04-20T23:23:30.675Z,99.60
2018-04-20T23:25:58.306Z,99.60
2018-04-20T23:28:25.907Z,99.80
2018-04-20T23:30:53.544Z,99.90
2018-04-20T23:33:21.188Z,99.90
2018-04-20T23:35:48.781Z,99.90
2018-04-20T23:38:16.446Z,99.90
2018-04-20T23:40:44.051Z,99.90
2018-04-20T23:43:11.685Z,99.90
2018-04-20T23:45:39.328Z,99.90
2018-04-20T23:48:06.959Z,99.90
2018-04-20T23:50:35.338Z,99.90
2018-04-20T23:53:02.939Z,99.90
2018-04-20T23:55:30.530Z,99.90
2018-04-20T23:57:58.106Z,99.90
